createdAt,value
2018-04-18T00:07:29.776Z,84.10
2018-04-18T00:12:33.030Z,84.70
2018-04-18T00:17:36.930Z,84.70
2018-04-18T00:22:40.171Z,84.70
2018-04-18T00:27:43.498Z,84.50
2018-04-18T00:32:50.291Z,84.70
2018-04-18T00:37:54.784Z,85.10
2018-04-18T00:42:58.101Z,86.00
2018-04-18T00:48:02.291Z,86.30
2018-04-18T00:53:06.879Z,85.90
2018-04-18T00:58:10.264Z,85.80
2018-04-18T01:03:13.897Z,87.40
2018-04-18T01:08:17.251Z,87.30
2018-04-18T01:13:20.585Z,87.80
2018-04-18T01:18:23.819Z,87.90
2018-04-18T01:23:28.811Z,87.90
2018-04-18T01:28:32.067Z,87.80
2018-04-18T01:33:35.868Z,88.10
2018-04-18T01:44:14.025Z,88.20
2018-04-18T01:49:22.469Z,87.10
2018-04-18T01:54:26.069Z,88.00
2018-04-18T01:59:29.788Z,87.50
2018-04-18T02:04:33.460Z,88.30
2018-04-18T02:09:39.518Z,88.30
2018-04-18T02:14:42.893Z,89.30
2018-04-18T02:19:48.385Z,90.50
2018-04-18T02:24:51.750Z,90.50
2018-04-18T02:29:55.357Z,91.80
2018-04-18T02:34:58.679Z,91.80
2018-04-18T02:40:02.290Z,91.90
2018-04-18T02:45:05.945Z,92.50
2018-04-18T02:50:09.188Z,92.50
2018-04-18T02:55:13.012Z,92.30
2018-04-18T03:00:16.335Z,93.50
2018-04-18T03:05:20.858Z,94.00
2018-04-18T03:10:24.503Z,93.50
2018-04-18T03:15:28.127Z,94.10
2018-04-18T03:20:31.597Z,94.10
2018-04-18T03:25:34.844Z,94.60
2018-04-18T03:30:38.057Z,94.30
2018-04-18T03:35:41.288Z,93.40
2018-04-18T03:40:45.265Z,91.70
2018-04-18T03:45:48.553Z,93.20
2018-04-18T03:50:51.763Z,92.90
2018-04-18T03:55:54.988Z,93.10
2018-04-18T04:00:58.599Z,92.50
2018-04-18T04:06:02.232Z,92.40
2018-04-18T04:11:05.507Z,92.50
2018-04-18T04:16:21.186Z,92.10
2018-04-18T04:21:36.310Z,92.10
2018-04-18T04:26:39.539Z,93.40
2018-04-18T04:31:45.743Z,93.50
2018-04-18T04:36:48.943Z,92.90
2018-04-18T04:41:52.244Z,92.00
2018-04-18T04:46:55.460Z,93.10
2018-04-18T04:51:58.682Z,93.80
2018-04-18T04:57:02.011Z,93.30
2018-04-18T05:02:05.304Z,93.50
2018-04-18T05:07:08.968Z,94.10
2018-04-18T05:12:21.452Z,94.10
2018-04-18T05:17:25.066Z,94.10
2018-04-18T05:22:28.669Z,93.90
2018-04-18T05:27:31.875Z,93.90
2018-04-18T05:32:35.096Z,93.90
2018-04-18T05:37:38.765Z,92.60
2018-04-18T05:42:42.329Z,92.60
2018-04-18T05:47:45.938Z,91.60
2018-04-18T05:52:49.666Z,90.80
2018-04-18T05:57:52.918Z,90.70
2018-04-18T06:02:56.143Z,89.90
2018-04-18T06:07:59.372Z,89.70
2018-04-18T06:13:03.024Z,89.00
2018-04-18T06:18:08.273Z,89.00
2018-04-18T06:23:11.501Z,89.00
2018-04-18T06:28:14.725Z,89.50
2018-04-18T06:33:18.048Z,88.90
2018-04-18T06:38:21.331Z,86.60
2018-04-18T06:43:24.572Z,84.10
2018-04-18T06:48:28.186Z,81.60
2018-04-18T06:53:32.605Z,81.20
2018-04-18T06:58:35.838Z,81.20
2018-04-18T07:03:39.564Z,84.30
2018-04-18T07:08:42.792Z,84.30
2018-04-18T07:13:46.149Z,85.10
2018-04-18T07:18:49.866Z,80.40
2018-04-18T07:23:53.088Z,80.40
2018-04-18T07:28:56.721Z,75.70
2018-04-18T07:33:59.939Z,75.70
2018-04-18T07:39:03.204Z,76.10
2018-04-18T07:44:06.507Z,75.40
2018-04-18T07:49:09.824Z,78.30
2018-04-18T07:54:13.455Z,75.30
2018-04-18T07:59:16.678Z,75.30
2018-04-18T08:04:19.894Z,74.70
2018-04-18T08:09:23.124Z,73.50
2018-04-18T08:14:26.471Z,76.50
2018-04-18T08:19:30.079Z,78.00
2018-04-18T08:24:33.739Z,77.20
2018-04-18T08:29:36.964Z,77.20
2018-04-18T08:34:40.183Z,74.80
2018-04-18T08:39:43.522Z,73.50
2018-04-18T08:44:46.770Z,73.90
2018-04-18T08:49:49.994Z,73.40
2018-04-18T08:54:53.216Z,72.80
2018-04-18T08:59:56.472Z,72.30
2018-04-18T09:04:59.709Z,72.10
2018-04-18T09:10:02.940Z,71.20
2018-04-18T09:15:06.166Z,71.80
2018-04-18T09:20:09.790Z,73.00
2018-04-18T09:25:12.999Z,73.00
2018-04-18T09:30:16.441Z,72.70
2018-04-18T09:35:19.666Z,71.30
2018-04-18T09:40:22.898Z,70.20
2018-04-18T09:45:26.510Z,68.80
2018-04-18T09:50:30.144Z,68.50
2018-04-18T09:55:33.357Z,68.50
2018-04-18T10:00:42.507Z,68.60
2018-04-18T10:05:45.736Z,67.70
2018-04-18T10:10:48.968Z,65.80
2018-04-18T10:15:52.190Z,65.50
2018-04-18T10:20:56.107Z,63.00
2018-04-18T10:25:59.342Z,63.00
2018-04-18T10:31:02.584Z,63.00
2018-04-18T10:36:05.833Z,62.70
2018-04-18T10:41:09.541Z,61.20
2018-04-18T10:46:12.767Z,61.20
2018-04-18T10:51:16.373Z,61.30
2018-04-18T10:56:20.673Z,60.10
2018-04-18T11:01:23.906Z,60.10
2018-04-18T11:06:27.548Z,59.30
2018-04-18T11:11:30.756Z,59.20
2018-04-18T11:16:33.979Z,57.10
2018-04-18T11:21:37.197Z,57.10
2018-04-18T11:26:40.406Z,53.40
2018-04-18T11:31:43.950Z,46.80
2018-04-18T11:36:47.184Z,45.80
2018-04-18T11:41:50.406Z,43.00
2018-04-18T11:46:53.631Z,41.90
2018-04-18T11:51:56.899Z,41.20
2018-04-18T11:57:00.492Z,40.30
2018-04-18T12:02:04.218Z,40.60
2018-04-18T12:07:07.512Z,40.60
2018-04-18T12:12:10.726Z,41.60
2018-04-18T12:17:14.447Z,42.00
2018-04-18T12:22:18.080Z,40.70
2018-04-18T12:27:21.291Z,40.70
2018-04-18T12:32:24.515Z,40.60
2018-04-18T12:37:27.727Z,41.40
2018-04-18T12:42:30.947Z,41.00
2018-04-18T12:47:34.253Z,39.80
2018-04-18T12:52:37.479Z,41.10
2018-04-18T12:57:40.794Z,40.00
2018-04-18T13:02:43.946Z,41.70
2018-04-18T13:07:47.312Z,40.60
2018-04-18T13:12:50.929Z,42.20
2018-04-18T13:17:55.328Z,41.20
2018-04-18T13:22:58.598Z,41.20
2018-04-18T13:28:01.807Z,41.80
2018-04-18T13:33:05.015Z,42.90
2018-04-18T13:38:08.356Z,42.20
2018-04-18T13:43:11.566Z,43.20
2018-04-18T13:48:14.793Z,44.50
2018-04-18T13:53:18.410Z,46.30
2018-04-18T13:58:22.036Z,46.70
2018-04-18T14:03:25.958Z,47.70
2018-04-18T14:08:29.862Z,46.30
2018-04-18T14:13:33.487Z,46.10
2018-04-18T14:18:37.204Z,45.00
2018-04-18T14:23:41.119Z,45.10
2018-04-18T14:28:44.750Z,44.20
2018-04-18T14:33:48.361Z,45.70
2018-04-18T14:38:51.966Z,45.60
2018-04-18T14:43:55.751Z,46.90
2018-04-18T14:48:58.978Z,46.90
2018-04-18T14:54:02.195Z,46.40
2018-04-18T14:59:05.816Z,46.20
2018-04-18T15:04:10.247Z,46.10
2018-04-18T15:09:13.878Z,45.80
2018-04-18T15:14:17.128Z,45.80
2018-04-18T15:19:20.468Z,46.10
2018-04-18T15:24:23.697Z,46.10
2018-04-18T15:29:26.990Z,46.60
2018-04-18T15:34:30.252Z,47.10
2018-04-18T15:39:33.598Z,47.30
2018-04-18T15:44:36.910Z,47.40
2018-04-18T15:49:40.213Z,47.50
2018-04-18T15:54:44.340Z,47.00
2018-04-18T15:59:47.618Z,47.00
2018-04-18T16:04:50.954Z,46.70
2018-04-18T16:09:54.172Z,46.90
2018-04-18T16:14:57.978Z,46.90
2018-04-18T16:20:01.193Z,46.90
2018-04-18T16:25:04.858Z,44.30
2018-04-18T16:30:20.008Z,44.30
2018-04-18T16:35:23.397Z,42.70
2018-04-18T16:40:26.630Z,41.90
2018-04-18T16:45:29.909Z,41.60
2018-04-18T16:50:33.646Z,46.70
2018-04-18T16:55:36.879Z,46.70
2018-04-18T17:00:40.116Z,47.50
2018-04-18T17:05:43.340Z,45.70
2018-04-18T17:10:46.665Z,45.80
2018-04-18T17:15:50.314Z,50.20
2018-04-18T17:20:53.547Z,50.20
2018-04-18T17:25:56.791Z,51.30
2018-04-18T17:31:00.518Z,52.10
2018-04-18T17:36:03.796Z,52.10
2018-04-18T17:41:07.406Z,52.60
2018-04-18T17:46:10.722Z,52.60
2018-04-18T17:51:14.336Z,53.90
2018-04-18T17:56:18.162Z,55.10
2018-04-18T18:01:22.080Z,56.20
2018-04-18T18:06:25.997Z,57.10
2018-04-18T18:11:29.402Z,57.10
2018-04-18T18:16:43.677Z,57.90
2018-04-18T18:21:47.934Z,58.80
2018-04-18T18:26:51.223Z,58.80
2018-04-18T18:31:55.215Z,59.80
2018-04-18T18:36:58.541Z,59.80
2018-04-18T18:42:02.557Z,60.10
2018-04-18T18:47:05.993Z,60.10
2018-04-18T18:52:09.686Z,60.00
2018-04-18T18:57:13.101Z,60.20
2018-04-18T19:02:19.568Z,60.60
2018-04-18T19:07:24.252Z,60.60
2018-04-18T19:12:28.128Z,60.90
2018-04-18T19:17:31.565Z,60.90
2018-04-18T19:22:35.306Z,61.10
2018-04-18T19:27:42.064Z,61.10
2018-04-18T19:32:45.460Z,61.10
2018-04-18T19:37:48.858Z,61.60
2018-04-18T19:42:52.894Z,61.90
2018-04-18T19:47:59.018Z,62.00
2018-04-18T19:53:02.684Z,62.00
2018-04-18T19:58:05.990Z,61.90
2018-04-18T20:03:12.869Z,62.70
2018-04-18T20:08:16.292Z,62.50
2018-04-18T20:13:19.817Z,62.50
2018-04-18T20:18:23.715Z,63.30
2018-04-18T20:23:27.092Z,63.30
2018-04-18T20:28:30.606Z,63.20
2018-04-18T20:33:34.235Z,63.60
2018-04-18T20:38:37.652Z,63.60
2018-04-18T20:43:40.887Z,63.80
2018-04-18T20:48:44.601Z,64.30
2018-04-18T20:53:47.876Z,64.30
2018-04-18T20:58:51.523Z,64.30
2018-04-18T21:03:55.452Z,64.90
2018-04-18T21:08:59.358Z,65.10
2018-04-18T21:14:02.809Z,65.10
2018-04-18T21:19:06.260Z,65.40
2018-04-18T21:24:09.490Z,65.70
2018-04-18T21:29:13.102Z,65.70
2018-04-18T21:34:16.336Z,65.70
2018-04-18T21:39:19.862Z,65.60
2018-04-18T21:44:23.227Z,65.50
2018-04-18T21:49:26.444Z,65.60
2018-04-18T21:54:30.072Z,66.00
2018-04-18T21:59:34.738Z,66.00
2018-04-18T22:04:38.854Z,66.10
2018-04-18T22:09:42.226Z,66.30
2018-04-18T22:14:45.861Z,66.80
2018-04-18T22:19:49.075Z,66.80
2018-04-18T22:24:52.437Z,66.90
2018-04-18T22:29:55.647Z,66.90
2018-04-18T22:34:58.927Z,66.90
2018-04-18T22:40:02.375Z,67.00
2018-04-18T22:45:06.118Z,66.90
2018-04-18T22:50:09.352Z,67.00
2018-04-18T22:55:12.635Z,67.20
2018-04-18T23:00:22.649Z,67.20
2018-04-18T23:05:26.180Z,67.60
2018-04-18T23:10:30.020Z,67.80
2018-04-18T23:15:34.040Z,67.80
2018-04-18T23:20:37.706Z,67.70
2018-04-18T23:25:41.053Z,67.70
2018-04-18T23:30:44.816Z,68.00
2018-04-18T23:35:48.099Z,68.00
2018-04-18T23:40:51.996Z,67.90
2018-04-18T23:45:55.747Z,68.10
2018-04-18T23:50:58.959Z,68.10
2018-04-18T23:56:02.254Z,68.20
